CheckWX is a tool to help pilots better visualize weather data.  It is not intended as a substitute for an official pre-flight weather briefing.

12:38:13 UTC

DTTJ TAF
Djerba Zarzis International Airport
Djerba, Tunisia
TAF DTTJ 031700Z 0318/0418 35021KT 6000 SCT020 SCT026 TEMPO 0318/0402 36017G29KT 4000 SHRA SCT023TCU BECMG 0401/0403 36019G31KT 7000 BKN020 SCT026 BECMG 0409/0411 32008KT 9999 SCT026 BECMG 0414/0416 10006KT

Apr-3@
18:00 UTC

Apr-3 @ 18:00 UTC

Apr-4@
01:00 UTC

Apr-4 @ 01:00 UTC

TAF DTTJ 031700Z 0318/0418 35021KT 6000 SCT020 SCT026

Expired

Wind
  • 350° at 21 KTS
Cloud Levels
  • Scattered at 2,000' AGL
  • Scattered at 2,600' AGL

Apr-3@
18:00 UTC

Apr-3 @ 18:00 UTC

Apr-4@
02:00 UTC

Apr-4 @ 02:00 UTC

TEMPO 0318/0402 36017G29KT 4000 SHRA SCT023TCU

Expired

Wind
  • 360° at 17 KTS
  • {Gusting to 29 KTS
Conditions
Showers, Rain
Cloud Levels
  • Scattered at 2,300' AGL

Apr-4@
01:00 UTC

Apr-4 @ 01:00 UTC

Apr-4@
09:00 UTC

Apr-4 @ 09:00 UTC

BECMG 0401/0403 36019G31KT 7000 BKN020 SCT026

Expired

Wind
  • 360° at 19 KTS
  • {Gusting to 31 KTS
Cloud Levels
  • Broken at 2,000' AGL
  • Scattered at 2,600' AGL

Apr-4@
09:00 UTC

Apr-4 @ 09:00 UTC

Apr-4@
14:00 UTC

Apr-4 @ 14:00 UTC

BECMG 0409/0411 32008KT 9999 SCT026

Becoming

Becoming Conditions expected by Sat, Apr 4, 2020 @ 11:00 UTC

Wind
  • 320° at 8 KTS
Cloud Levels
  • Scattered at 2,600' AGL

Apr-4@
14:00 UTC

Apr-4 @ 14:00 UTC

Apr-4@
18:00 UTC

Apr-4 @ 18:00 UTC

BECMG 0414/0416 10006KT

Becoming

Becoming Conditions expected by Sat, Apr 4, 2020 @ 16:00 UTC

Wind
  • 100° at 6 KTS
Cloud Levels
  • Scattered at 2,600' AGL